createdAt,value
2019-03-23T00:01:33.880Z,108.73
2019-03-23T00:04:04.163Z,115.70
2019-03-23T00:06:34.334Z,115.87
2019-03-23T00:09:06.391Z,128.07
2019-03-23T00:11:36.646Z,118.47
2019-03-23T00:14:07.824Z,112.43
2019-03-23T00:16:37.995Z,125.80
2019-03-23T00:19:08.319Z,112.23
2019-03-23T00:21:38.511Z,116.17
2019-03-23T00:24:08.715Z,113.30
2019-03-23T00:26:38.887Z,125.33
2019-03-23T00:29:09.300Z,113.33
2019-03-23T00:31:39.571Z,113.77
2019-03-23T00:34:09.827Z,119.20
2019-03-23T00:36:41.696Z,119.57
2019-03-23T00:39:12.243Z,127.93
2019-03-23T00:41:42.435Z,126.40
2019-03-23T00:44:12.639Z,120.60
2019-03-23T00:46:42.851Z,112.93
2019-03-23T00:49:13.038Z,128.67
2019-03-23T00:51:43.309Z,117.43
2019-03-23T00:54:13.486Z,120.97
2019-03-23T00:56:43.679Z,125.67
2019-03-23T00:59:13.947Z,132.10
2019-03-23T01:01:44.138Z,121.80
2019-03-23T01:04:14.382Z,123.07
2019-03-23T01:06:52.160Z,121.87
2019-03-23T01:09:16.539Z,112.73
2019-03-23T01:11:46.919Z,131.27
2019-03-23T01:14:17.123Z,132.03
2019-03-23T01:16:47.378Z,140.67
2019-03-23T01:19:17.564Z,136.53
2019-03-23T01:21:47.791Z,131.53
2019-03-23T01:24:18.042Z,151.40
2019-03-23T01:26:48.297Z,127.53
2019-03-23T01:29:18.474Z,134.17
2019-03-23T01:31:48.663Z,121.00
2019-03-23T01:34:18.887Z,127.27
2019-03-23T01:36:49.349Z,132.97
2019-03-23T01:39:19.691Z,120.93
2019-03-23T01:41:49.900Z,129.97
2019-03-23T01:44:20.124Z,133.50
2019-03-23T01:46:50.323Z,128.97
2019-03-23T01:49:20.491Z,126.50
2019-03-23T01:51:51.315Z,126.63
2019-03-23T01:54:21.512Z,129.87
2019-03-23T01:56:51.756Z,133.77
2019-03-23T01:59:21.950Z,134.63
2019-03-23T02:01:53.194Z,121.50
2019-03-23T02:04:23.404Z,133.60
2019-03-23T02:06:53.714Z,105.67
2019-03-23T02:09:23.945Z,130.07
2019-03-23T02:11:54.225Z,141.93
2019-03-23T02:14:24.522Z,151.50
2019-03-23T02:16:55.743Z,138.87
2019-03-23T02:19:25.987Z,142.27
2019-03-23T02:21:56.277Z,148.27
2019-03-23T02:24:26.526Z,147.10
2019-03-23T02:26:56.731Z,140.20
2019-03-23T02:29:27.045Z,147.13
2019-03-23T02:31:57.347Z,156.03
2019-03-23T02:34:27.614Z,156.90
2019-03-23T02:36:57.931Z,152.83
2019-03-23T02:39:28.150Z,150.40
2019-03-23T02:41:58.943Z,148.03
2019-03-23T02:44:30.227Z,148.37
2019-03-23T02:47:00.469Z,149.57
2019-03-23T02:49:31.677Z,133.87
2019-03-23T02:52:01.947Z,132.67
2019-03-23T02:54:32.155Z,130.33
2019-03-23T02:57:02.440Z,145.57
2019-03-23T02:59:32.677Z,161.57
2019-03-23T03:02:03.156Z,221.07
2019-03-23T03:04:33.467Z,196.93
2019-03-23T03:07:03.806Z,209.10
2019-03-23T03:09:34.063Z,206.43
2019-03-23T03:12:04.405Z,273.33
2019-03-23T03:14:34.648Z,274.90
2019-03-23T03:17:05.607Z,259.17
2019-03-23T03:19:35.887Z,438.20
2019-03-23T03:22:06.381Z,155.10
2019-03-23T03:24:36.583Z,196.07
2019-03-23T03:27:06.839Z,146.17
2019-03-23T03:29:37.028Z,193.53
2019-03-23T03:32:07.306Z,252.17
2019-03-23T03:34:38.510Z,183.10
2019-03-23T03:37:08.719Z,189.73
2019-03-23T03:39:39.965Z,165.33
2019-03-23T03:42:10.409Z,172.73
2019-03-23T03:44:40.598Z,185.30
2019-03-23T03:47:10.866Z,187.90
2019-03-23T03:49:41.046Z,152.50
2019-03-23T03:52:11.305Z,161.27
2019-03-23T03:54:41.487Z,150.77
2019-03-23T03:57:11.752Z,146.35
2019-03-23T03:59:42.013Z,149.07
2019-03-23T04:02:12.185Z,136.03
2019-03-23T04:04:42.408Z,135.33
2019-03-23T04:07:12.575Z,157.87
2019-03-23T04:09:42.835Z,127.63
2019-03-23T04:12:13.106Z,136.07
2019-03-23T04:14:43.708Z,135.40
2019-03-23T04:17:13.957Z,148.62
2019-03-23T04:19:44.205Z,143.77
2019-03-23T04:22:14.419Z,135.70
2019-03-23T04:24:44.667Z,134.93
2019-03-23T04:27:14.924Z,141.57
2019-03-23T04:29:45.293Z,121.03
2019-03-23T04:32:15.540Z,128.40
2019-03-23T04:34:45.896Z,118.67
2019-03-23T04:37:16.161Z,123.07
2019-03-23T04:39:47.413Z,124.37
2019-03-23T04:42:17.709Z,124.40
2019-03-23T04:44:48.981Z,140.63
2019-03-23T04:47:19.204Z,115.33
2019-03-23T04:49:49.436Z,129.60
2019-03-23T04:52:19.629Z,124.27
2019-03-23T04:54:49.872Z,138.20
2019-03-23T04:57:20.115Z,129.90
2019-03-23T04:59:50.327Z,124.60
2019-03-23T05:02:20.591Z,128.80
2019-03-23T05:04:50.888Z,139.70
2019-03-23T05:07:21.176Z,117.03
2019-03-23T05:09:51.435Z,120.37
2019-03-23T05:12:21.711Z,119.80
2019-03-23T05:14:51.962Z,111.13
2019-03-23T05:17:22.271Z,121.27
2019-03-23T05:19:52.491Z,118.67
2019-03-23T05:22:22.816Z,112.80
2019-03-23T05:24:53.147Z,107.83
2019-03-23T05:27:23.363Z,110.03
2019-03-23T05:29:53.611Z,119.60
2019-03-23T05:32:23.779Z,103.47
2019-03-23T05:34:54.034Z,113.87
2019-03-23T05:37:24.224Z,112.77
2019-03-23T05:39:54.500Z,111.80
2019-03-23T05:42:24.740Z,107.13
2019-03-23T05:44:55.029Z,97.67
2019-03-23T05:47:25.226Z,115.67
2019-03-23T05:49:55.493Z,123.87
2019-03-23T05:52:25.859Z,129.83
2019-03-23T05:54:56.401Z,127.27
2019-03-23T05:57:26.617Z,115.37
2019-03-23T05:59:57.120Z,103.93
2019-03-23T06:02:27.454Z,119.13
2019-03-23T06:04:57.715Z,107.10
2019-03-23T06:07:27.962Z,103.03
2019-03-23T06:09:58.131Z,106.43
2019-03-23T06:12:28.385Z,106.37
2019-03-23T06:14:58.603Z,107.30
2019-03-23T06:17:28.827Z,99.07
2019-03-23T06:19:59.025Z,105.23
2019-03-23T06:22:29.275Z,106.63
2019-03-23T06:24:59.508Z,102.63
2019-03-23T06:27:29.720Z,99.60
2019-03-23T06:29:59.968Z,109.77
2019-03-23T06:32:31.351Z,115.90
2019-03-23T06:35:01.599Z,113.50
2019-03-23T06:37:31.844Z,128.27
2019-03-23T06:40:02.051Z,128.37
2019-03-23T06:42:32.275Z,120.80
2019-03-23T06:45:02.656Z,123.97
2019-03-23T06:47:32.940Z,118.50
2019-03-23T06:50:04.053Z,123.40
2019-03-23T06:52:34.297Z,127.00
2019-03-23T06:55:06.155Z,116.27
2019-03-23T06:57:36.390Z,115.37
2019-03-23T07:00:08.256Z,108.23
2019-03-23T07:02:38.511Z,134.63
2019-03-23T07:05:09.393Z,127.37
2019-03-23T07:07:39.691Z,121.33
2019-03-23T07:10:10.491Z,123.33
2019-03-23T07:12:40.793Z,124.83
2019-03-23T07:15:20.036Z,126.27
2019-03-23T07:17:44.412Z,124.10
2019-03-23T07:20:14.856Z,132.67
2019-03-23T07:22:46.123Z,121.23
2019-03-23T07:25:16.442Z,113.97
2019-03-23T07:27:46.727Z,124.60
2019-03-23T07:30:17.076Z,126.17
2019-03-23T07:32:47.444Z,118.80
2019-03-23T07:35:18.472Z,128.27
2019-03-23T07:37:48.880Z,124.87
2019-03-23T07:40:19.149Z,135.20
2019-03-23T07:42:49.386Z,134.57
2019-03-23T07:45:19.576Z,120.57
2019-03-23T07:47:49.925Z,120.23
2019-03-23T07:50:20.132Z,128.60
2019-03-23T07:52:50.391Z,129.63
2019-03-23T07:55:20.592Z,102.73
2019-03-23T07:57:50.840Z,122.97
2019-03-23T08:00:21.378Z,116.53
2019-03-23T08:02:51.635Z,111.23
2019-03-23T08:05:21.951Z,107.30
2019-03-23T08:07:52.135Z,110.70
2019-03-23T08:10:30.091Z,98.57
2019-03-23T08:13:00.469Z,93.13
2019-03-23T08:15:30.969Z,98.30
2019-03-23T08:18:01.303Z,99.83
2019-03-23T08:20:31.690Z,110.97
2019-03-23T08:23:01.969Z,102.77
2019-03-23T08:25:32.206Z,107.20
2019-03-23T08:28:02.539Z,104.30
2019-03-23T08:30:32.819Z,114.47
2019-03-23T08:33:03.059Z,102.20
2019-03-23T08:35:33.244Z,94.27
2019-03-23T08:38:03.491Z,96.90
2019-03-23T08:40:35.695Z,95.37
2019-03-23T08:43:05.753Z,97.80
2019-03-23T08:45:36.049Z,102.97
2019-03-23T08:48:06.445Z,101.57
2019-03-23T08:50:36.651Z,104.83
2019-03-23T08:53:06.834Z,94.67
2019-03-23T08:55:37.080Z,98.37
2019-03-23T08:58:07.254Z,86.20
2019-03-23T09:00:37.441Z,94.00
2019-03-23T09:03:07.611Z,97.70
2019-03-23T09:05:37.799Z,101.43
2019-03-23T09:08:08.044Z,97.33
2019-03-23T09:10:38.256Z,96.77
2019-03-23T09:13:08.420Z,101.37
2019-03-23T09:15:38.607Z,93.00
2019-03-23T09:18:08.779Z,103.13
2019-03-23T09:20:38.962Z,92.07
2019-03-23T09:23:09.150Z,92.13
2019-03-23T09:25:39.573Z,101.90
2019-03-23T09:28:09.761Z,95.20
2019-03-23T09:30:41.187Z,87.87
2019-03-23T09:33:11.414Z,93.77
2019-03-23T09:35:43.460Z,93.60
2019-03-23T09:38:13.753Z,95.10
2019-03-23T09:40:44.026Z,90.63
2019-03-23T09:43:14.223Z,95.13
2019-03-23T09:45:44.410Z,108.33
2019-03-23T09:48:14.591Z,114.10
2019-03-23T09:50:44.883Z,107.17
2019-03-23T09:53:16.064Z,102.63
2019-03-23T09:55:46.295Z,108.97
2019-03-23T09:58:16.512Z,104.33
2019-03-23T10:00:46.759Z,104.50
2019-03-23T10:03:16.971Z,98.40
2019-03-23T10:05:47.343Z,99.53
2019-03-23T10:08:17.599Z,98.57
2019-03-23T10:10:47.934Z,102.67
2019-03-23T10:13:18.142Z,105.43
2019-03-23T10:15:49.427Z,94.00
2019-03-23T10:18:19.619Z,92.80
2019-03-23T10:20:49.931Z,85.23
2019-03-23T10:23:20.218Z,95.40
2019-03-23T10:25:50.416Z,94.00
2019-03-23T10:28:20.659Z,92.07
2019-03-23T10:30:50.895Z,93.67
2019-03-23T10:33:21.235Z,88.13
2019-03-23T10:35:51.524Z,92.00
2019-03-23T10:38:21.807Z,88.27
2019-03-23T10:40:52.043Z,86.33
2019-03-23T10:43:22.371Z,93.70
2019-03-23T10:45:52.647Z,81.10
2019-03-23T10:48:22.985Z,93.07
2019-03-23T10:50:53.231Z,92.10
2019-03-23T10:53:23.566Z,82.70
2019-03-23T10:55:53.906Z,91.23
2019-03-23T10:58:24.127Z,84.20
2019-03-23T11:00:54.351Z,86.73
2019-03-23T11:03:24.739Z,75.20
2019-03-23T11:05:55.010Z,79.17
2019-03-23T11:08:25.221Z,79.53
2019-03-23T11:10:55.414Z,74.45
2019-03-23T11:13:25.706Z,72.57
2019-03-23T11:15:55.955Z,72.57
2019-03-23T11:18:26.257Z,73.78
2019-03-23T11:20:56.529Z,75.30
2019-03-23T11:23:26.804Z,75.45
2019-03-23T11:25:57.072Z,71.07
2019-03-23T11:28:27.307Z,74.37
2019-03-23T11:30:57.507Z,80.60
2019-03-23T11:33:27.772Z,69.50
2019-03-23T11:35:58.330Z,66.43
2019-03-23T11:38:28.791Z,69.42
2019-03-23T11:40:58.995Z,63.90
2019-03-23T11:43:29.264Z,61.37
2019-03-23T11:45:59.687Z,61.28
2019-03-23T11:48:29.967Z,59.65
2019-03-23T11:51:00.171Z,66.90
2019-03-23T11:53:30.427Z,62.65
2019-03-23T11:56:00.699Z,58.80
2019-03-23T11:58:31.011Z,61.75
2019-03-23T12:01:01.403Z,58.70
2019-03-23T12:03:31.630Z,56.15
2019-03-23T12:06:01.872Z,65.22
2019-03-23T12:08:32.059Z,63.65
2019-03-23T12:11:03.232Z,58.90
2019-03-23T12:13:33.635Z,56.55
2019-03-23T12:16:03.927Z,63.42
2019-03-23T12:18:35.230Z,62.55
2019-03-23T12:21:05.455Z,64.45
2019-03-23T12:23:35.806Z,57.75
2019-03-23T12:26:06.288Z,54.33
2019-03-23T12:28:36.566Z,51.13
2019-03-23T12:31:06.887Z,51.02
2019-03-23T12:33:37.260Z,43.45
2019-03-23T12:36:07.739Z,37.95
2019-03-23T12:38:38.979Z,40.88
2019-03-23T12:41:18.495Z,42.10
2019-03-23T12:43:41.594Z,34.33
2019-03-23T12:46:12.169Z,47.65
2019-03-23T12:48:42.544Z,36.38
2019-03-23T12:51:13.000Z,39.90
2019-03-23T12:53:43.294Z,40.88
2019-03-23T12:56:13.576Z,38.92
2019-03-23T12:58:43.828Z,38.23
2019-03-23T13:01:14.793Z,56.13
2019-03-23T13:03:45.091Z,42.25
2019-03-23T13:06:15.392Z,38.98
2019-03-23T13:08:45.612Z,46.92
2019-03-23T13:11:23.299Z,31.52
2019-03-23T13:13:47.862Z,32.25
2019-03-23T13:16:18.089Z,32.53
2019-03-23T13:18:48.318Z,24.05
2019-03-23T13:21:18.565Z,25.35
2019-03-23T13:23:48.830Z,22.22
2019-03-23T13:26:20.117Z,31.30
2019-03-23T13:28:50.318Z,25.88
2019-03-23T13:31:31.640Z,19.77
2019-03-23T13:34:01.840Z,22.13
2019-03-23T13:36:32.298Z,27.10
2019-03-23T13:39:03.174Z,20.02
2019-03-23T13:41:33.558Z,16.77
2019-03-23T13:44:03.830Z,21.33
2019-03-23T13:46:34.080Z,19.05
2019-03-23T13:49:04.412Z,28.38
2019-03-23T13:51:34.769Z,18.05
2019-03-23T13:54:05.719Z,14.34
2019-03-23T13:56:36.005Z,15.23
2019-03-23T13:59:06.194Z,18.17
2019-03-23T14:01:36.431Z,15.08
2019-03-23T14:04:06.623Z,18.55
2019-03-23T14:06:37.208Z,18.62
2019-03-23T14:09:08.004Z,17.90
2019-03-23T14:11:38.571Z,14.53
2019-03-23T14:14:08.869Z,18.65
2019-03-23T14:16:39.196Z,18.20
2019-03-23T14:19:09.404Z,24.92
2019-03-23T14:21:39.781Z,22.27
2019-03-23T14:24:10.048Z,18.80
2019-03-23T14:26:40.316Z,15.48
2019-03-23T14:29:10.611Z,21.27
2019-03-23T14:31:41.095Z,18.95
2019-03-23T14:34:11.368Z,22.13
2019-03-23T14:36:41.632Z,19.65
2019-03-23T14:39:11.898Z,23.77
2019-03-23T14:41:42.103Z,17.42
2019-03-23T14:44:12.279Z,19.62
2019-03-23T14:46:42.531Z,20.20
2019-03-23T14:49:12.727Z,23.32
2019-03-23T14:51:43.174Z,20.12
2019-03-23T14:54:13.455Z,15.10
2019-03-23T14:56:43.724Z,14.07
2019-03-23T14:59:13.923Z,14.85
2019-03-23T15:01:44.099Z,15.38
2019-03-23T15:04:14.303Z,17.35
2019-03-23T15:06:44.499Z,14.47
2019-03-23T15:09:14.718Z,23.02
2019-03-23T15:11:44.975Z,15.63
2019-03-23T15:14:15.152Z,14.38
2019-03-23T15:16:45.331Z,19.37
2019-03-23T15:19:15.825Z,14.97
2019-03-23T15:21:46.192Z,14.28
2019-03-23T15:24:16.416Z,19.42
2019-03-23T15:26:46.636Z,18.70
2019-03-23T15:29:16.841Z,15.23
2019-03-23T15:31:47.079Z,17.48
2019-03-23T15:34:17.297Z,10.78
2019-03-23T15:36:47.535Z,19.48
2019-03-23T15:39:17.760Z,16.65
2019-03-23T15:41:48.029Z,17.20
2019-03-23T15:44:18.291Z,15.60
2019-03-23T15:46:48.499Z,14.98
2019-03-23T15:49:18.715Z,19.80
2019-03-23T15:51:49.079Z,22.52
2019-03-23T15:54:19.400Z,11.60
2019-03-23T15:56:49.594Z,16.90
2019-03-23T15:59:19.817Z,28.98
2019-03-23T16:01:50.047Z,28.40
2019-03-23T16:04:20.267Z,25.23
2019-03-23T16:06:51.379Z,20.35
2019-03-23T16:09:22.643Z,21.05
2019-03-23T16:11:52.870Z,15.40
2019-03-23T16:14:23.087Z,15.43
2019-03-23T16:16:53.317Z,16.67
2019-03-23T16:19:23.556Z,16.63
2019-03-23T16:21:53.726Z,14.35
2019-03-23T16:24:23.915Z,15.95
2019-03-23T16:26:55.072Z,15.30
2019-03-23T16:29:25.426Z,20.55
2019-03-23T16:31:55.681Z,13.55
2019-03-23T16:34:25.995Z,16.37
2019-03-23T16:36:56.155Z,15.85
2019-03-23T16:39:26.494Z,19.27
2019-03-23T16:41:56.779Z,14.83
2019-03-23T16:44:27.006Z,17.67
2019-03-23T16:46:57.230Z,15.80
2019-03-23T16:49:27.458Z,19.40
2019-03-23T16:51:57.718Z,14.87
2019-03-23T16:54:27.987Z,15.70
2019-03-23T16:56:58.313Z,15.07
2019-03-23T16:59:28.636Z,20.10
2019-03-23T17:01:58.937Z,17.50
2019-03-23T17:04:29.188Z,11.20
2019-03-23T17:06:59.566Z,17.67
2019-03-23T17:09:29.815Z,17.57
2019-03-23T17:12:00.067Z,22.80
2019-03-23T17:14:30.252Z,20.90
2019-03-23T17:17:00.459Z,14.97
2019-03-23T17:19:30.689Z,21.53
2019-03-23T17:22:00.979Z,19.60
2019-03-23T17:24:31.220Z,32.70
2019-03-23T17:27:01.479Z,21.37
2019-03-23T17:29:31.719Z,30.47
2019-03-23T17:32:01.960Z,24.83
2019-03-23T17:34:32.235Z,32.80
2019-03-23T17:37:02.516Z,43.33
2019-03-23T17:39:32.809Z,29.77
2019-03-23T17:42:03.231Z,20.03
2019-03-23T17:44:33.433Z,24.90
2019-03-23T17:47:03.753Z,15.30
2019-03-23T17:49:33.974Z,16.87
2019-03-23T17:52:04.356Z,21.70
2019-03-23T17:54:35.130Z,29.30
2019-03-23T17:57:05.626Z,18.13
2019-03-23T17:59:35.842Z,20.27
2019-03-23T18:02:06.294Z,17.63
2019-03-23T18:04:36.639Z,18.57
2019-03-23T18:07:07.065Z,19.73
2019-03-23T18:09:37.299Z,18.20
2019-03-23T18:12:07.621Z,19.20
2019-03-23T18:14:37.852Z,17.27
2019-03-23T18:17:08.137Z,20.93
2019-03-23T18:19:38.478Z,17.23
2019-03-23T18:22:08.794Z,16.20
2019-03-23T18:24:39.127Z,12.23
2019-03-23T18:27:09.400Z,15.33
2019-03-23T18:29:39.658Z,15.20
2019-03-23T18:32:09.887Z,12.83
2019-03-23T18:34:40.148Z,13.47
2019-03-23T18:37:10.375Z,16.90
2019-03-23T18:39:40.766Z,19.43
2019-03-23T18:42:10.944Z,18.77
2019-03-23T18:44:41.143Z,17.90
2019-03-23T18:47:11.358Z,22.85
2019-03-23T18:49:41.592Z,21.80
2019-03-23T18:52:12.885Z,19.47
2019-03-23T18:54:43.116Z,19.57
2019-03-23T18:57:13.418Z,20.50
2019-03-23T18:59:43.627Z,15.83
2019-03-23T19:02:13.839Z,20.67
2019-03-23T19:04:44.048Z,18.20
2019-03-23T19:07:14.309Z,19.53
2019-03-23T19:09:44.579Z,17.20
2019-03-23T19:12:14.844Z,17.57
2019-03-23T19:14:45.135Z,15.93
2019-03-23T19:17:15.401Z,14.93
2019-03-23T19:19:45.687Z,16.07
2019-03-23T19:22:15.929Z,18.20
2019-03-23T19:24:46.154Z,9.23
2019-03-23T19:27:16.318Z,15.53
2019-03-23T19:29:46.663Z,15.10
2019-03-23T19:32:16.895Z,15.10
2019-03-23T19:34:47.205Z,16.43
2019-03-23T19:37:17.419Z,22.33
2019-03-23T19:39:47.627Z,19.37
2019-03-23T19:42:18.127Z,9.73
2019-03-23T19:44:48.390Z,19.53
2019-03-23T19:47:18.533Z,15.23
2019-03-23T19:49:48.713Z,18.77
2019-03-23T19:52:18.885Z,21.03
2019-03-23T19:54:49.067Z,14.90
2019-03-23T19:57:19.297Z,16.17
2019-03-23T19:59:50.231Z,15.27
2019-03-23T20:02:20.475Z,18.47
2019-03-23T20:04:50.647Z,17.17
2019-03-23T20:07:20.858Z,16.13
2019-03-23T20:09:51.651Z,18.53
2019-03-23T20:12:21.928Z,16.33
2019-03-23T20:14:52.129Z,8.73
2019-03-23T20:17:22.359Z,18.40
2019-03-23T20:19:52.541Z,14.53
2019-03-23T20:22:22.746Z,10.80
2019-03-23T20:24:54.751Z,14.33
2019-03-23T20:27:24.990Z,14.10
2019-03-23T20:29:55.301Z,13.67
2019-03-23T20:32:26.609Z,16.37
2019-03-23T20:34:57.734Z,13.10
2019-03-23T20:37:27.929Z,13.47
2019-03-23T20:39:58.383Z,15.67
2019-03-23T20:42:28.701Z,19.97
2019-03-23T20:44:58.987Z,20.33
2019-03-23T20:47:29.532Z,18.17
2019-03-23T20:49:59.831Z,16.97
2019-03-23T20:52:30.012Z,27.50
2019-03-23T20:55:00.442Z,21.17
2019-03-23T20:57:37.456Z,18.70
2019-03-23T21:00:02.844Z,26.10
2019-03-23T21:02:34.139Z,15.70
2019-03-23T21:05:05.455Z,24.47
2019-03-23T21:07:35.679Z,17.60
2019-03-23T21:10:06.418Z,17.20
2019-03-23T21:12:36.623Z,22.63
2019-03-23T21:15:06.870Z,20.63
2019-03-23T21:17:50.446Z,24.07
2019-03-23T21:20:10.051Z,19.47
2019-03-23T21:22:40.282Z,21.60
2019-03-23T21:25:10.705Z,24.77
2019-03-23T21:27:41.046Z,23.67
2019-03-23T21:30:12.955Z,18.10
2019-03-23T21:32:43.300Z,22.20
2019-03-23T21:35:15.715Z,22.07
2019-03-23T21:37:45.856Z,18.93
2019-03-23T21:40:16.141Z,18.33
2019-03-23T21:42:46.379Z,27.40
2019-03-23T21:45:16.678Z,18.73
2019-03-23T21:47:46.960Z,25.30
2019-03-23T21:50:17.296Z,25.83
2019-03-23T21:52:47.533Z,18.10
2019-03-23T21:55:17.736Z,22.30
2019-03-23T21:57:47.980Z,18.93
2019-03-23T22:00:33.001Z,18.17
2019-03-23T22:03:03.323Z,25.10
2019-03-23T22:05:33.539Z,26.97
2019-03-23T22:08:03.708Z,26.30
2019-03-23T22:10:33.943Z,16.77
2019-03-23T22:13:04.326Z,23.13
2019-03-23T22:15:35.358Z,32.63
2019-03-23T22:18:05.774Z,20.93
2019-03-23T22:20:37.143Z,25.30
2019-03-23T22:23:07.406Z,22.70
2019-03-23T22:25:37.795Z,22.70
2019-03-23T22:28:08.318Z,30.60
2019-03-23T22:30:38.639Z,28.23
2019-03-23T22:33:09.035Z,30.23
2019-03-23T22:35:39.236Z,27.47
2019-03-23T22:38:09.487Z,29.07
2019-03-23T22:40:39.939Z,23.60
2019-03-23T22:43:10.215Z,19.47
2019-03-23T22:45:40.526Z,29.20
2019-03-23T22:48:10.803Z,22.90
2019-03-23T22:50:41.109Z,32.27
2019-03-23T22:53:11.407Z,25.27
2019-03-23T22:55:41.675Z,20.10
2019-03-23T22:58:11.947Z,27.50
2019-03-23T23:00:43.594Z,26.20
2019-03-23T23:03:14.448Z,32.47
2019-03-23T23:05:44.973Z,22.57
2019-03-23T23:08:15.250Z,23.80
2019-03-23T23:10:45.702Z,27.67
2019-03-23T23:13:15.875Z,30.07
2019-03-23T23:15:46.047Z,21.00
2019-03-23T23:18:16.250Z,20.07
2019-03-23T23:20:46.503Z,21.17
2019-03-23T23:23:16.728Z,24.73
2019-03-23T23:25:46.955Z,28.27
2019-03-23T23:28:17.123Z,26.57
2019-03-23T23:30:48.473Z,34.23
2019-03-23T23:33:18.697Z,22.73
2019-03-23T23:35:48.874Z,19.07
2019-03-23T23:38:19.126Z,32.50
2019-03-23T23:40:49.379Z,24.90
2019-03-23T23:43:19.562Z,31.37
2019-03-23T23:45:49.832Z,26.57
2019-03-23T23:48:20.003Z,25.90
2019-03-23T23:50:50.283Z,20.23
2019-03-23T23:53:20.527Z,22.97
2019-03-23T23:55:50.739Z,20.53
2019-03-23T23:58:20.916Z,23.33
